Time;durP1;ratioP1;P1;durP2;ratioP2;P2;SDS_P1;SDS_P2;PMS_P1;PMS_P2;Temp;Humidity;BMP_temperature;BMP_pressure;BME280_temperature;BME280_humidity;BME280_pressure;Samples;Min_cycle;Max_cycle;Signal;HPM_P1;HPM_P2
2020/12/01 15:21:44;;;;;;;4.93;1.42;;;;;;;18.28;46.30;101648.91;5005457;28;96853;-52
2020/12/01 15:24:13;;;;;;;5.40;1.00;;;;;;;18.85;45.47;101647.66;4976517;28;96834;-53
2020/12/01 15:26:39;;;;;;;6.75;1.42;;;;;;;19.41;44.28;101640.88;4997465;28;127059;-65
2020/12/01 15:29:04;;;;;;;6.88;1.77;;;;;;;19.92;43.13;101651.75;4975162;28;97486;-60
2020/12/01 15:31:30;;;;;;;3.78;1.30;;;;;;;20.37;42.51;101651.09;4993831;28;110030;-53
2020/12/01 15:36:27;;;;;;;6.80;1.63;;;;;;;20.96;41.34;101642.22;5061644;27;96920;-53
2020/12/01 15:38:53;;;;;;;7.30;1.27;;;;;;;21.19;40.88;101641.78;5037215;27;98746;-57
2020/12/01 15:41:20;;;;;;;4.20;1.10;;;;;;;21.41;40.58;101647.56;5020030;27;97458;-58
2020/12/01 15:43:56;;;;;;;6.35;1.30;;;;;;;21.60;40.17;101646.31;5014838;27;97154;-57
2020/12/01 15:46:40;;;;;;;4.93;1.27;;;;;;;21.79;39.74;101651.25;5040378;27;96899;-57
2020/12/01 15:49:07;;;;;;;6.00;1.40;;;;;;;21.95;39.19;101654.44;5034729;27;97309;-57
2020/12/01 15:51:39;;;;;;;7.35;1.40;;;;;;;22.04;38.90;101647.13;5013583;27;97232;-57
2020/12/01 15:54:37;;;;;;;5.78;1.30;;;;;;;22.13;38.59;101648.69;5035002;27;98552;-57
2020/12/01 15:57:11;;;;;;;4.57;1.33;;;;;;;22.22;38.88;101650.28;5022279;27;96854;-56
2020/12/01 15:59:46;;;;;;;6.78;1.50;;;;;;;22.30;38.62;101644.81;5039295;27;96843;-56
2020/12/01 16:02:46;;;;;;;4.85;1.13;;;;;;;22.34;38.26;101651.81;5037673;27;97392;-56
2020/12/01 16:05:16;;;;;;;5.03;1.30;;;;;;;22.40;37.99;101649.00;5039403;27;98502;-56
2020/12/01 16:08:03;;;;;;;3.72;1.10;;;;;;;22.41;37.88;101658.72;5028321;28;96802;-56
2020/12/01 16:10:52;;;;;;;3.72;1.13;;;;;;;22.44;38.05;101658.63;5046460;27;96706;-56
2020/12/01 16:13:33;;;;;;;3.10;1.00;;;;;;;22.46;37.69;101655.94;5031918;27;97471;-56
2020/12/01 16:16:01;;;;;;;3.60;1.65;;;;;;;22.49;37.67;101666.50;5035026;27;126542;-56
2020/12/01 16:18:32;;;;;;;3.83;1.00;;;;;;;22.51;37.87;101667.34;5020617;27;96763;-56
2020/12/01 16:21:07;;;;;;;5.38;1.65;;;;;;;22.51;37.56;101668.22;5014674;27;96855;-56
2020/12/01 16:23:32;;;;;;;3.00;1.00;;;;;;;22.55;37.54;101675.22;5034068;27;97591;-56
2020/12/01 16:25:58;;;;;;;4.00;1.67;;;;;;;22.56;37.81;101671.63;5030939;27;126368;-56
2020/12/01 16:28:28;;;;;;;2.90;1.05;;;;;;;22.57;37.44;101678.72;5013438;28;105378;-56
2020/12/01 16:30:53;;;;;;;3.53;2.42;;;;;;;22.59;37.24;101676.88;5012831;27;96732;-56
2020/12/01 16:33:19;;;;;;;3.47;0.88;;;;;;;22.60;37.63;101686.63;5045428;27;126813;-56
2020/12/01 16:35:45;;;;;;;3.08;1.05;;;;;;;22.61;37.66;101682.19;5044330;27;97236;-56
2020/12/01 16:38:20;;;;;;;4.53;1.00;;;;;;;22.61;37.45;101688.34;5042721;27;97488;-56
2020/12/01 16:41:03;;;;;;;2.97;1.58;;;;;;;22.62;37.49;101691.91;5029746;27;101972;-56
2020/12/01 16:43:47;;;;;;;4.75;1.10;;;;;;;22.64;37.35;101698.06;5034502;27;110954;-56
2020/12/01 16:46:38;;;;;;;2.78;0.80;;;;;;;22.63;37.35;101701.63;5033736;27;97910;-56
2020/12/01 16:49:40;;;;;;;3.13;1.02;;;;;;;22.62;37.59;101700.75;4993208;28;97271;-56
2020/12/01 16:52:25;;;;;;;2.10;0.68;;;;;;;22.65;37.54;101698.94;5036502;27;96632;-56
2020/12/01 16:55:21;;;;;;;1.58;1.00;;;;;;;22.63;37.64;101697.16;5016390;27;97547;-56
2020/12/01 16:58:10;;;;;;;2.20;1.08;;;;;;;22.65;37.41;101704.25;5037519;27;98600;-56
2020/12/01 17:00:46;;;;;;;2.92;0.85;;;;;;;22.64;37.40;101708.69;5004709;28;97990;-56
2020/12/01 17:03:30;;;;;;;2.83;0.80;;;;;;;22.66;37.55;101709.53;5023047;27;97019;-56
2020/12/01 17:06:38;;;;;;;1.85;1.20;;;;;;;22.64;37.63;101714.00;5033381;27;97549;-56
2020/12/01 17:09:05;;;;;;;2.60;0.90;;;;;;;22.69;37.55;101727.19;5020952;27;97455;-56
2020/12/01 17:11:53;;;;;;;3.30;0.88;;;;;;;22.67;37.64;101723.69;5019116;28;97260;-56
2020/12/01 17:14:21;;;;;;;3.83;1.20;;;;;;;22.68;37.69;101726.31;5018434;27;97468;-56
2020/12/01 17:17:02;;;;;;;2.75;0.73;;;;;;;22.67;37.80;101732.53;4991829;28;117264;-56
2020/12/01 17:19:27;;;;;;;2.00;0.80;;;;;;;22.68;37.56;101728.97;5021063;28;97155;-55
2020/12/01 17:21:56;;;;;;;1.50;0.60;;;;;;;22.68;37.74;101736.94;5016793;27;105813;-56
2020/12/01 17:24:22;;;;;;;3.22;0.95;;;;;;;22.69;37.62;101745.78;5017798;27;97245;-56
2020/12/01 17:26:48;;;;;;;1.98;0.70;;;;;;;22.70;37.77;101747.56;4985907;28;105175;-56
2020/12/01 17:29:17;;;;;;;1.83;0.98;;;;;;;22.70;37.51;101750.22;5017038;27;97602;-56
2020/12/01 17:32:05;;;;;;;1.80;0.70;;;;;;;22.68;37.48;101749.38;5033686;27;96811;-56
2020/12/01 17:34:49;;;;;;;2.72;0.70;;;;;;;22.70;37.66;101751.09;5034733;28;96686;-58
2020/12/01 17:37:34;;;;;;;1.88;0.75;;;;;;;22.71;37.70;101747.53;5020565;27;97472;-58
2020/12/01 17:40:18;;;;;;;1.40;0.60;;;;;;;22.70;37.74;101750.22;5032808;27;98142;-58
2020/12/01 17:45:31;;;;;;;1.52;0.65;;;;;;;22.69;37.81;101769.72;4996040;28;99495;-55
2020/12/01 17:48:10;;;;;;;1.80;0.90;;;;;;;22.69;37.58;101773.28;4989242;28;97509;-55
2020/12/01 17:50:40;;;;;;;1.80;0.73;;;;;;;22.69;37.65;101762.66;5005787;28;97200;-55
2020/12/01 17:53:39;;;;;;;2.20;0.85;;;;;;;22.68;37.86;101770.66;4987533;28;104200;-55
2020/12/01 17:56:05;;;;;;;1.77;0.80;;;;;;;22.69;37.86;101775.03;4998715;28;96837;-55
2020/12/01 17:58:33;;;;;;;1.10;0.60;;;;;;;22.69;37.65;101775.03;4983205;28;97703;-55
2020/12/01 18:00:58;;;;;;;2.35;0.80;;;;;;;22.69;37.65;101777.72;5000392;28;99521;-55
2020/12/01 18:03:24;;;;;;;1.63;0.88;;;;;;;22.69;37.63;101780.38;4996478;28;110304;-54
2020/12/01 18:05:50;;;;;;;2.08;1.15;;;;;;;22.69;37.88;101786.59;5002459;28;104065;-55
2020/12/01 18:08:26;;;;;;;1.73;0.70;;;;;;;22.69;37.86;101780.38;5001053;28;96887;-55
2020/12/01 18:11:10;;;;;;;1.73;1.02;;;;;;;22.68;38.00;101782.16;5017226;28;97584;-55
2020/12/01 18:13:57;;;;;;;2.08;0.75;;;;;;;22.70;37.61;101779.47;5015528;28;97380;-54
2020/12/01 18:16:41;;;;;;;1.17;0.60;;;;;;;22.69;37.87;101785.69;4977088;28;96851;-55
2020/12/01 18:19:15;;;;;;;1.67;1.58;;;;;;;22.70;37.66;101790.09;5014653;28;99248;-55
2020/12/01 18:21:44;;;;;;;1.45;0.60;;;;;;;22.69;37.74;101786.59;5005602;28;98217;-54
2020/12/01 18:24:18;;;;;;;1.15;0.50;;;;;;;22.69;37.80;101791.00;4998417;28;96759;-54
2020/12/01 18:26:55;;;;;;;2.08;0.85;;;;;;;22.68;37.54;101792.78;5009622;28;98022;-54
2020/12/01 18:30:03;;;;;;;1.52;0.63;;;;;;;22.68;38.01;101806.09;4990054;28;97592;-54
2020/12/01 18:32:45;;;;;;;1.90;1.38;;;;;;;22.69;37.92;101809.63;4998981;28;97395;-54
2020/12/01 18:35:20;;;;;;;1.15;0.80;;;;;;;22.70;37.99;101814.91;4991188;28;97131;-55
2020/12/01 18:37:47;;;;;;;1.17;0.60;;;;;;;22.71;38.06;101816.66;5003218;28;96992;-55
2020/12/01 18:40:16;;;;;;;1.92;0.80;;;;;;;22.71;37.58;101818.44;4986803;28;97602;-55
2020/12/01 18:42:51;;;;;;;1.23;0.52;;;;;;;22.71;37.59;101822.00;5006090;28;97348;-55
2020/12/01 18:45:22;;;;;;;1.27;0.73;;;;;;;22.73;37.67;101825.47;4988572;28;96812;-54
2020/12/01 18:47:48;;;;;;;1.48;0.60;;;;;;;22.73;37.49;101829.94;4973933;28;96791;-54
2020/12/01 18:50:14;;;;;;;1.38;0.60;;;;;;;22.74;37.45;101826.34;5004393;28;126823;-55
2020/12/01 18:52:40;;;;;;;1.23;0.70;;;;;;;22.74;37.46;101827.22;4971137;28;97250;-54
2020/12/01 18:55:05;;;;;;;1.33;0.70;;;;;;;22.74;37.85;101824.56;5001387;28;96735;-55
2020/12/01 18:57:31;;;;;;;1.60;0.70;;;;;;;22.75;37.64;101830.78;5006328;28;96817;-55
2020/12/01 18:59:56;;;;;;;1.10;0.60;;;;;;;22.76;37.85;101827.19;4997991;28;109479;-54
2020/12/01 19:02:22;;;;;;;1.25;0.50;;;;;;;22.75;37.66;101826.31;4981065;28;96852;-55
2020/12/01 19:04:47;;;;;;;0.75;0.60;;;;;;;22.76;37.70;101835.16;5016563;28;110304;-55
2020/12/01 19:07:13;;;;;;;1.40;0.68;;;;;;;22.76;37.77;101828.09;5013254;28;110405;-55
2020/12/01 19:09:38;;;;;;;1.05;0.68;;;;;;;22.76;37.62;101828.09;4999916;28;126863;-55
2020/12/01 19:12:04;;;;;;;1.27;0.90;;;;;;;22.78;37.73;101833.34;4995625;28;104815;-55
2020/12/01 19:14:29;;;;;;;1.55;0.80;;;;;;;22.78;37.77;101836.91;4985797;28;101805;-55
2020/12/01 19:16:56;;;;;;;1.13;0.50;;;;;;;22.78;37.70;101838.66;5012520;28;110006;-55
2020/12/01 19:19:21;;;;;;;1.15;0.60;;;;;;;22.77;37.79;101845.78;4988031;28;99344;-55
2020/12/01 19:21:50;;;;;;;1.20;0.60;;;;;;;22.78;37.86;101841.31;4979941;28;127219;-55
2020/12/01 19:24:17;;;;;;;1.25;1.08;;;;;;;22.78;37.70;101844.88;4998437;28;97504;-55
2020/12/01 19:26:43;;;;;;;1.55;0.63;;;;;;;22.78;37.47;101847.53;5001297;28;96916;-55
2020/12/01 19:29:08;;;;;;;0.70;0.47;;;;;;;22.79;37.68;101853.72;5002290;28;118027;-55
2020/12/01 19:31:34;;;;;;;1.65;0.70;;;;;;;22.79;37.76;101846.59;4978862;28;97380;-55
2020/12/01 19:33:59;;;;;;;0.70;0.52;;;;;;;22.80;37.55;101858.16;4998213;28;99172;-55
2020/12/01 19:36:25;;;;;;;0.90;0.50;;;;;;;22.79;37.61;101857.25;5002846;28;110033;-55
2020/12/01 19:38:50;;;;;;;0.90;0.63;;;;;;;22.81;37.81;101865.19;4984507;28;126887;-54
2020/12/01 19:41:15;;;;;;;1.15;0.88;;;;;;;22.80;37.49;101872.31;4979259;28;126676;-55
2020/12/01 19:43:44;;;;;;;1.35;1.10;;;;;;;22.80;37.67;101866.13;5000919;28;107789;-55
2020/12/01 19:46:10;;;;;;;1.10;0.50;;;;;;;22.81;37.58;101878.50;5015653;28;98326;-55
2020/12/01 19:48:36;;;;;;;1.10;0.70;;;;;;;22.81;37.76;101882.03;4990657;28;127293;-55
2020/12/01 19:51:01;;;;;;;1.30;0.75;;;;;;;22.80;37.69;101884.75;5012122;28;127165;-55
2020/12/01 19:53:27;;;;;;;1.05;0.60;;;;;;;22.81;37.42;101891.78;5014856;28;111799;-55
2020/12/01 19:55:52;;;;;;;1.17;0.95;;;;;;;22.80;37.49;101887.41;5014718;28;111685;-55
2020/12/01 19:58:18;;;;;;;1.50;0.70;;;;;;;22.80;37.40;101898.91;5014709;28;97864;-55
2020/12/01 20:00:43;;;;;;;0.75;0.75;;;;;;;22.79;37.34;101894.47;5015014;28;97237;-55
2020/12/01 20:03:09;;;;;;;0.80;0.60;;;;;;;22.80;37.40;101895.38;5013643;28;112747;-55
2020/12/01 20:05:34;;;;;;;0.95;0.50;;;;;;;22.79;37.55;101901.59;5014520;28;112731;-55
2020/12/01 20:07:59;;;;;;;0.68;0.57;;;;;;;22.80;37.53;101898.91;4995037;28;126976;-55
2020/12/01 20:10:26;;;;;;;1.17;0.60;;;;;;;22.81;37.44;101899.78;5015146;28;102397;-55
2020/12/01 20:12:51;;;;;;;0.80;0.50;;;;;;;22.81;37.47;101897.97;5014662;28;96853;-55
2020/12/01 20:15:17;;;;;;;0.88;0.50;;;;;;;22.82;37.61;101904.19;5010143;28;111695;-55
2020/12/01 20:17:42;;;;;;;0.73;0.60;;;;;;;22.82;37.52;101909.53;4989664;28;126827;-55
2020/12/01 20:20:08;;;;;;;1.10;0.50;;;;;;;22.82;37.63;101901.53;5010289;28;127143;-55
2020/12/01 20:22:34;;;;;;;0.85;0.60;;;;;;;22.84;37.54;101904.16;4990082;28;96724;-55
2020/12/01 20:25:00;;;;;;;0.75;0.70;;;;;;;22.84;37.58;101899.72;4988772;28;96886;-54
2020/12/01 20:27:27;;;;;;;1.27;0.70;;;;;;;22.84;37.48;101902.38;4999348;28;127247;-55
2020/12/01 20:29:53;;;;;;;0.70;0.50;;;;;;;22.84;37.58;101907.69;4990000;28;97138;-55
2020/12/01 20:32:18;;;;;;;0.80;0.50;;;;;;;22.85;37.30;101911.22;4982457;28;113200;-55
2020/12/01 20:34:44;;;;;;;0.82;0.80;;;;;;;22.87;37.41;101914.72;4988359;28;97165;-55
2020/12/01 20:37:12;;;;;;;0.50;0.47;;;;;;;22.86;37.27;101915.66;4999621;28;126732;-55
2020/12/01 20:40:02;;;;;;;1.02;0.70;;;;;;;22.83;37.28;101907.72;5014337;28;127250;-55
2020/12/01 20:42:31;;;;;;;0.60;0.50;;;;;;;22.86;37.09;101907.66;4992514;28;96998;-55
2020/12/01 20:44:57;;;;;;;0.68;0.60;;;;;;;22.85;37.09;101912.09;4983844;28;96716;-55
2020/12/01 20:47:23;;;;;;;0.70;0.60;;;;;;;22.86;37.08;101918.31;4982850;28;97588;-55
2020/12/01 20:49:49;;;;;;;0.68;0.43;;;;;;;22.86;37.46;101921.84;4999288;28;127057;-55
2020/12/01 20:52:14;;;;;;;1.30;0.63;;;;;;;22.87;37.31;101920.03;5000936;28;96692;-55
2020/12/01 20:54:40;;;;;;;1.77;0.60;;;;;;;22.87;37.47;101918.28;4999739;28;112590;-54
2020/12/01 20:57:05;;;;;;;1.27;0.70;;;;;;;22.87;37.52;101920.03;4984884;28;127393;-56
2020/12/01 20:59:31;;;;;;;2.20;0.90;;;;;;;22.87;37.44;101926.25;5001139;28;118533;-60
2020/12/01 21:01:57;;;;;;;2.70;1.05;;;;;;;22.87;37.51;101923.59;4972790;28;112488;-54
2020/12/01 21:04:22;;;;;;;4.97;0.80;;;;;;;22.89;37.62;101935.06;5001884;28;106480;-54
2020/12/01 21:06:48;;;;;;;1.48;0.70;;;;;;;22.89;37.26;101929.75;4992490;28;97876;-54
2020/12/01 21:09:14;;;;;;;3.38;0.95;;;;;;;22.90;37.06;101934.16;5007758;28;129204;-54
2020/12/01 21:11:43;;;;;;;4.35;0.90;;;;;;;22.91;37.44;101932.38;5009106;28;97111;-54
2020/12/01 21:14:08;;;;;;;1.02;0.80;;;;;;;22.90;37.05;101942.13;4984726;28;97863;-54
2020/12/01 21:16:34;;;;;;;2.63;1.85;;;;;;;22.92;37.41;101937.69;4962113;28;111317;-54
2020/12/01 21:18:59;;;;;;;1.33;0.77;;;;;;;22.92;37.37;101939.44;4972619;28;97167;-54
2020/12/01 21:21:25;;;;;;;2.22;1.10;;;;;;;22.93;37.05;101941.22;5002702;28;96847;-54
2020/12/01 21:23:50;;;;;;;2.72;1.10;;;;;;;22.94;37.09;101942.94;5000647;28;111813;-54
2020/12/01 21:26:17;;;;;;;1.10;0.90;;;;;;;22.94;37.16;101949.16;5002617;28;126717;-54
2020/12/01 21:28:49;;;;;;;1.10;0.85;;;;;;;22.94;36.99;101954.47;5009410;28;126516;-54
2020/12/01 21:31:21;;;;;;;1.00;0.70;;;;;;;22.94;37.25;101957.13;4987347;28;97276;-53
2020/12/01 21:33:49;;;;;;;1.33;0.90;;;;;;;22.94;37.12;101951.81;4992349;28;107718;-54
2020/12/01 21:36:17;;;;;;;2.08;1.13;;;;;;;22.95;36.98;101955.34;5002544;28;97620;-54
2020/12/01 21:38:43;;;;;;;1.13;0.73;;;;;;;22.95;37.07;101966.00;5000106;28;97019;-54
2020/12/01 21:41:30;;;;;;;1.00;0.63;;;;;;;22.92;37.11;101958.06;5000568;28;112655;-54
2020/12/01 21:44:17;;;;;;;1.55;0.70;;;;;;;22.92;36.83;101960.72;4987422;28;97981;-54
2020/12/01 21:46:50;;;;;;;1.20;0.80;;;;;;;22.93;37.22;101958.03;4994500;28;98733;-54
2020/12/01 21:49:16;;;;;;;1.30;0.90;;;;;;;22.93;36.86;101958.03;5011219;28;101023;-54
2020/12/01 21:52:02;;;;;;;1.20;0.80;;;;;;;22.94;36.92;101972.19;5029262;22;97073;-54
2020/12/01 21:54:52;;;;;;;1.80;0.90;;;;;;;22.94;36.93;101969.53;4983897;28;96663;-54
2020/12/01 21:57:42;;;;;;;1.10;1.00;;;;;;;22.93;36.87;101968.69;4977928;28;106562;-54
2020/12/01 22:00:30;;;;;;;1.10;0.90;;;;;;;22.93;37.13;101975.78;4997184;28;97219;-54
2020/12/01 22:03:36;;;;;;;1.48;0.90;;;;;;;22.92;36.89;101974.03;4977431;28;107362;-54
2020/12/01 22:06:37;;;;;;;1.58;1.20;;;;;;;22.93;37.21;101975.78;4958816;28;96848;-54
2020/12/01 22:09:10;;;;;;;1.13;0.88;;;;;;;22.94;36.78;101982.84;4971162;28;97586;-54
2020/12/01 22:11:46;;;;;;;2.28;1.35;;;;;;;22.93;37.04;101984.63;4977818;28;97224;-54
2020/12/01 22:14:31;;;;;;;1.20;1.10;;;;;;;22.94;36.99;101982.84;4958077;28;112673;-54
2020/12/01 22:17:24;;;;;;;1.10;0.80;;;;;;;22.93;36.67;101989.09;4969262;28;96676;-54
2020/12/01 22:20:01;;;;;;;1.05;0.95;;;;;;;22.93;36.79;101984.63;4994604;28;97705;-54
2020/12/01 22:22:42;;;;;;;1.15;1.05;;;;;;;22.95;37.10;101981.94;4990592;28;103499;-54
2020/12/01 22:25:28;;;;;;;1.48;1.05;;;;;;;22.94;37.10;101986.41;4977988;28;112193;-54
2020/12/01 22:28:16;;;;;;;1.38;1.20;;;;;;;22.94;36.70;101991.72;4976639;28;97319;-55
2020/12/01 22:31:01;;;;;;;1.30;0.98;;;;;;;22.96;36.82;101983.72;4978650;28;97571;-55
2020/12/01 22:33:44;;;;;;;1.35;1.10;;;;;;;22.96;36.73;101986.38;4981187;28;97311;-54
2020/12/01 22:36:17;;;;;;;1.20;1.00;;;;;;;22.96;36.95;101989.03;4981810;28;96833;-54
2020/12/01 22:38:43;;;;;;;1.40;1.30;;;;;;;22.96;36.62;101992.56;4975353;28;97427;-54
2020/12/01 22:41:32;;;;;;;1.60;1.20;;;;;;;22.96;36.83;101989.91;4985882;28;97350;-54
2020/12/01 22:44:00;;;;;;;1.48;1.00;;;;;;;22.98;36.65;101988.06;4989877;28;97270;-54
2020/12/01 22:47:07;;;;;;;1.23;1.10;;;;;;;22.96;36.78;101997.00;4990865;28;96825;-55
2020/12/01 22:50:01;;;;;;;1.20;1.10;;;;;;;22.96;36.51;101995.22;4975782;28;97092;-54
2020/12/01 22:52:32;;;;;;;1.20;1.00;;;;;;;22.96;36.75;101987.25;4982972;28;97548;-54
2020/12/01 22:55:08;;;;;;;1.35;1.15;;;;;;;22.97;36.71;101985.44;4980787;28;97336;-54
2020/12/01 22:57:45;;;;;;;1.30;1.20;;;;;;;22.97;36.67;101990.78;4969403;28;97107;-54
2020/12/01 23:00:33;;;;;;;1.40;1.20;;;;;;;22.98;36.58;101987.22;4982175;28;96912;-54
2020/12/01 23:03:00;;;;;;;1.42;1.33;;;;;;;22.99;36.81;101994.28;4974435;28;99654;-54
2020/12/01 23:05:26;;;;;;;1.65;1.27;;;;;;;22.99;36.38;101987.19;4987905;28;97819;-54
2020/12/01 23:08:02;;;;;;;1.70;1.60;;;;;;;22.99;36.57;101992.50;4970718;28;96856;-54
2020/12/01 23:10:30;;;;;;;1.40;1.20;;;;;;;23.01;36.31;101992.44;4964695;28;96698;-54
2020/12/01 23:13:09;;;;;;;1.60;1.50;;;;;;;23.00;36.62;101988.91;4995167;28;97393;-55
2020/12/01 23:15:34;;;;;;;1.55;1.40;;;;;;;23.03;36.41;101992.41;4978005;28;97285;-54
2020/12/01 23:18:01;;;;;;;1.65;1.40;;;;;;;23.04;36.53;101987.06;4961072;28;112174;-54
2020/12/01 23:20:27;;;;;;;1.75;1.65;;;;;;;23.04;36.33;101987.06;4980836;28;96756;-54
2020/12/01 23:22:53;;;;;;;1.77;1.60;;;;;;;23.04;36.61;101989.72;4978382;28;97560;-54
2020/12/01 23:25:19;;;;;;;1.80;1.70;;;;;;;23.06;36.26;101989.72;4980065;28;97329;-54
2020/12/01 23:27:58;;;;;;;1.52;1.42;;;;;;;23.04;36.17;101989.72;4983986;28;96596;-55
2020/12/01 23:30:31;;;;;;;2.25;1.70;;;;;;;23.07;36.20;101991.50;4960961;28;112547;-54
2020/12/01 23:32:58;;;;;;;1.92;1.73;;;;;;;23.07;36.19;101988.84;4986112;28;115719;-54
2020/12/01 23:35:28;;;;;;;1.80;1.50;;;;;;;23.08;36.59;101998.56;4958283;28;126259;-54
2020/12/01 23:37:56;;;;;;;1.85;1.50;;;;;;;23.09;36.32;101997.66;4966933;28;96929;-55
2020/12/01 23:40:22;;;;;;;1.63;1.50;;;;;;;23.10;36.39;101997.63;4984283;28;96790;-54
2020/12/01 23:43:15;;;;;;;1.70;1.50;;;;;;;23.07;36.61;101995.03;4977732;28;97385;-54
2020/12/01 23:45:50;;;;;;;2.30;1.95;;;;;;;23.10;36.45;101994.06;5030233;22;98334;-59
2020/12/01 23:48:15;;;;;;;1.70;1.50;;;;;;;23.11;36.12;101990.50;5000377;28;107374;-59
2020/12/01 23:50:41;;;;;;;2.05;1.70;;;;;;;23.11;36.23;101985.19;4959911;28;111508;-59
2020/12/01 23:53:06;;;;;;;1.67;1.40;;;;;;;23.12;36.45;101986.94;4961748;28;97483;-59
2020/12/01 23:55:32;;;;;;;1.90;1.70;;;;;;;23.12;36.29;101981.59;4977872;28;127265;-59
2020/12/01 23:58:08;;;;;;;2.15;1.92;;;;;;;23.12;36.34;101984.25;4980451;28;110804;-59
